sensor_id;sensor_type;location;lat;lon;timestamp;pressure;altitude;pressure_sealevel;temperature;humidity
80424;BME280;69765;47.668;19.326;2023-05-10T00:01:37;99396.59;;;9.30;65.61
80424;BME280;69765;47.668;19.326;2023-05-10T00:04:39;99394.19;;;9.32;66.11
80424;BME280;69765;47.668;19.326;2023-05-10T00:07:42;99392.56;;;9.22;66.21
80424;BME280;69765;47.668;19.326;2023-05-10T00:10:47;99397.03;;;9.25;66.24
80424;BME280;69765;47.668;19.326;2023-05-10T00:13:49;99389.38;;;9.25;66.76
80424;BME280;69765;47.668;19.326;2023-05-10T00:16:51;99389.22;;;9.11;66.90
80424;BME280;69765;47.668;19.326;2023-05-10T00:19:54;99394.47;;;9.13;66.89
80424;BME280;69765;47.668;19.326;2023-05-10T00:22:56;99399.53;;;9.01;67.51
80424;BME280;69765;47.668;19.326;2023-05-10T00:25:58;99381.41;;;8.98;67.80
80424;BME280;69765;47.668;19.326;2023-05-10T00:29:01;99382.97;;;8.96;67.59
80424;BME280;69765;47.668;19.326;2023-05-10T00:32:03;99381.22;;;9.07;68.22
80424;BME280;69765;47.668;19.326;2023-05-10T00:35:06;99379.69;;;9.09;68.30
80424;BME280;69765;47.668;19.326;2023-05-10T00:38:08;99381.53;;;9.00;68.51
80424;BME280;69765;47.668;19.326;2023-05-10T00:41:11;99377.19;;;8.99;68.05
80424;BME280;69765;47.668;19.326;2023-05-10T00:44:15;99377.31;;;9.00;69.41
80424;BME280;69765;47.668;19.326;2023-05-10T00:47:17;99372.75;;;8.96;69.16
80424;BME280;69765;47.668;19.326;2023-05-10T00:50:19;99370.44;;;9.11;69.74
80424;BME280;69765;47.668;19.326;2023-05-10T00:53:22;99368.00;;;9.12;69.34
80424;BME280;69765;47.668;19.326;2023-05-10T00:56:25;99365.44;;;9.12;69.34
80424;BME280;69765;47.668;19.326;2023-05-10T00:59:28;99366.25;;;9.23;68.90
80424;BME280;69765;47.668;19.326;2023-05-10T01:02:30;99365.66;;;9.04;69.85
80424;BME280;69765;47.668;19.326;2023-05-10T01:05:33;99365.78;;;9.17;69.17
80424;BME280;69765;47.668;19.326;2023-05-10T01:08:36;99366.66;;;9.06;69.20
80424;BME280;69765;47.668;19.326;2023-05-10T01:11:39;99360.34;;;9.12;69.36
80424;BME280;69765;47.668;19.326;2023-05-10T01:14:42;99359.63;;;9.03;69.22
80424;BME280;69765;47.668;19.326;2023-05-10T01:17:46;99368.22;;;9.04;68.39
80424;BME280;69765;47.668;19.326;2023-05-10T01:21:01;99362.25;;;9.27;68.00
80424;BME280;69765;47.668;19.326;2023-05-10T01:27:43;99361.25;;;9.25;69.73
80424;BME280;69765;47.668;19.326;2023-05-10T01:41:33;99354.59;;;9.38;69.44
80424;BME280;69765;47.668;19.326;2023-05-10T01:44:56;99344.03;;;9.34;68.60
80424;BME280;69765;47.668;19.326;2023-05-10T01:48:10;99350.19;;;9.02;71.45
80424;BME280;69765;47.668;19.326;2023-05-10T01:51:16;99357.78;;;8.45;73.04
80424;BME280;69765;47.668;19.326;2023-05-10T01:54:22;99351.47;;;8.74;70.85
80424;BME280;69765;47.668;19.326;2023-05-10T01:57:26;99344.25;;;8.80;70.86
80424;BME280;69765;47.668;19.326;2023-05-10T02:00:32;99356.84;;;8.88;70.66
80424;BME280;69765;47.668;19.326;2023-05-10T02:03:36;99351.44;;;8.95;70.53
80424;BME280;69765;47.668;19.326;2023-05-10T02:06:41;99347.53;;;9.01;72.22
80424;BME280;69765;47.668;19.326;2023-05-10T02:09:45;99343.13;;;9.10;71.56
80424;BME280;69765;47.668;19.326;2023-05-10T02:12:53;99335.25;;;9.18;70.83
80424;BME280;69765;47.668;19.326;2023-05-10T02:15:57;99336.34;;;9.10;71.03
80424;BME280;69765;47.668;19.326;2023-05-10T02:19:01;99336.44;;;9.12;70.79
80424;BME280;69765;47.668;19.326;2023-05-10T02:22:05;99340.47;;;9.20;71.29
80424;BME280;69765;47.668;19.326;2023-05-10T02:25:08;99337.81;;;9.18;70.95
80424;BME280;69765;47.668;19.326;2023-05-10T02:28:12;99341.56;;;9.12;71.72
80424;BME280;69765;47.668;19.326;2023-05-10T02:31:14;99331.53;;;9.03;72.31
80424;BME280;69765;47.668;19.326;2023-05-10T02:34:17;99333.88;;;9.12;71.93
80424;BME280;69765;47.668;19.326;2023-05-10T02:37:21;99341.25;;;9.19;72.34
80424;BME280;69765;47.668;19.326;2023-05-10T02:40:24;99337.22;;;9.11;71.85
80424;BME280;69765;47.668;19.326;2023-05-10T02:43:32;99351.47;;;9.19;72.39
80424;BME280;69765;47.668;19.326;2023-05-10T02:46:36;99347.59;;;9.24;71.81
80424;BME280;69765;47.668;19.326;2023-05-10T02:49:39;99342.38;;;9.23;72.46
80424;BME280;69765;47.668;19.326;2023-05-10T02:52:46;99348.38;;;9.23;72.57
80424;BME280;69765;47.668;19.326;2023-05-10T02:55:51;99348.47;;;9.25;73.84
80424;BME280;69765;47.668;19.326;2023-05-10T02:58:55;99356.47;;;9.17;76.20
80424;BME280;69765;47.668;19.326;2023-05-10T03:01:58;99341.69;;;9.25;76.85
80424;BME280;69765;47.668;19.326;2023-05-10T03:05:02;99357.78;;;9.12;77.86
80424;BME280;69765;47.668;19.326;2023-05-10T03:08:05;99357.13;;;9.27;77.67
80424;BME280;69765;47.668;19.326;2023-05-10T03:11:37;99353.16;;;9.30;78.67
80424;BME280;69765;47.668;19.326;2023-05-10T03:18:23;99343.94;;;9.32;78.97
80424;BME280;69765;47.668;19.326;2023-05-10T03:21:31;99343.81;;;9.31;79.64
80424;BME280;69765;47.668;19.326;2023-05-10T03:24:35;99349.81;;;9.31;79.66
80424;BME280;69765;47.668;19.326;2023-05-10T03:27:40;99348.28;;;9.33;79.45
80424;BME280;69765;47.668;19.326;2023-05-10T03:30:45;99347.25;;;9.31;78.20
80424;BME280;69765;47.668;19.326;2023-05-10T03:33:49;99349.44;;;8.69;79.02
80424;BME280;69765;47.668;19.326;2023-05-10T03:36:56;99341.94;;;8.83;80.74
80424;BME280;69765;47.668;19.326;2023-05-10T03:40:03;99354.41;;;8.90;79.25
80424;BME280;69765;47.668;19.326;2023-05-10T03:43:08;99343.75;;;8.95;81.17
80424;BME280;69765;47.668;19.326;2023-05-10T03:46:11;99351.53;;;8.97;79.27
80424;BME280;69765;47.668;19.326;2023-05-10T03:49:14;99343.50;;;8.81;79.58
80424;BME280;69765;47.668;19.326;2023-05-10T03:52:16;99345.88;;;9.01;80.28
80424;BME280;69765;47.668;19.326;2023-05-10T03:55:20;99345.69;;;9.10;79.95
80424;BME280;69765;47.668;19.326;2023-05-10T03:58:22;99341.00;;;9.16;77.58
80424;BME280;69765;47.668;19.326;2023-05-10T04:01:25;99339.72;;;9.33;77.84
80424;BME280;69765;47.668;19.326;2023-05-10T04:04:27;99333.59;;;9.19;77.59
80424;BME280;69765;47.668;19.326;2023-05-10T04:07:30;99338.16;;;9.23;79.33
80424;BME280;69765;47.668;19.326;2023-05-10T04:10:32;99334.38;;;9.18;78.74
80424;BME280;69765;47.668;19.326;2023-05-10T04:13:35;99348.25;;;9.21;77.51
80424;BME280;69765;47.668;19.326;2023-05-10T04:16:37;99341.59;;;9.24;77.81
80424;BME280;69765;47.668;19.326;2023-05-10T04:19:40;99338.47;;;9.16;77.74
80424;BME280;69765;47.668;19.326;2023-05-10T04:22:42;99344.94;;;8.89;77.81
80424;BME280;69765;47.668;19.326;2023-05-10T04:25:45;99348.00;;;9.07;77.42
80424;BME280;69765;47.668;19.326;2023-05-10T04:28:47;99341.25;;;9.19;78.41
80424;BME280;69765;47.668;19.326;2023-05-10T04:31:49;99342.38;;;9.34;76.64
80424;BME280;69765;47.668;19.326;2023-05-10T04:34:52;99344.94;;;9.46;77.65
80424;BME280;69765;47.668;19.326;2023-05-10T04:37:55;99349.16;;;9.57;78.08
80424;BME280;69765;47.668;19.326;2023-05-10T04:41:08;99354.16;;;9.67;78.74
80424;BME280;69765;47.668;19.326;2023-05-10T04:44:11;99346.81;;;9.84;76.00
80424;BME280;69765;47.668;19.326;2023-05-10T04:47:13;99344.59;;;9.88;77.10
80424;BME280;69765;47.668;19.326;2023-05-10T04:50:16;99341.31;;;10.14;76.14
80424;BME280;69765;47.668;19.326;2023-05-10T04:53:19;99341.22;;;10.13;77.48
80424;BME280;69765;47.668;19.326;2023-05-10T04:56:21;99342.53;;;10.31;76.90
80424;BME280;69765;47.668;19.326;2023-05-10T04:59:24;99342.00;;;10.48;74.58
80424;BME280;69765;47.668;19.326;2023-05-10T05:02:26;99340.72;;;10.67;76.72
80424;BME280;69765;47.668;19.326;2023-05-10T05:05:29;99340.41;;;10.87;73.15
80424;BME280;69765;47.668;19.326;2023-05-10T05:08:31;99333.47;;;11.11;73.53
80424;BME280;69765;47.668;19.326;2023-05-10T05:11:34;99339.81;;;11.30;73.56
80424;BME280;69765;47.668;19.326;2023-05-10T05:14:36;99335.84;;;11.21;73.19
80424;BME280;69765;47.668;19.326;2023-05-10T05:17:38;99336.81;;;11.23;72.39
80424;BME280;69765;47.668;19.326;2023-05-10T05:20:41;99341.16;;;11.11;73.88
80424;BME280;69765;47.668;19.326;2023-05-10T05:23:43;99336.16;;;11.52;73.23
80424;BME280;69765;47.668;19.326;2023-05-10T05:26:46;99341.53;;;11.95;72.94
80424;BME280;69765;47.668;19.326;2023-05-10T05:29:48;99349.88;;;12.06;71.02
80424;BME280;69765;47.668;19.326;2023-05-10T05:32:50;99344.59;;;12.31;73.74
80424;BME280;69765;47.668;19.326;2023-05-10T05:35:53;99345.25;;;12.70;70.18
80424;BME280;69765;47.668;19.326;2023-05-10T05:38:56;99349.50;;;12.69;68.32
80424;BME280;69765;47.668;19.326;2023-05-10T05:41:58;99337.56;;;13.27;68.14
80424;BME280;69765;47.668;19.326;2023-05-10T05:45:01;99337.97;;;13.50;66.08
80424;BME280;69765;47.668;19.326;2023-05-10T05:48:03;99346.03;;;14.02;65.61
80424;BME280;69765;47.668;19.326;2023-05-10T05:51:06;99355.19;;;14.12;63.06
80424;BME280;69765;47.668;19.326;2023-05-10T05:54:08;99357.47;;;14.22;63.45
80424;BME280;69765;47.668;19.326;2023-05-10T05:57:11;99358.03;;;14.32;62.64
80424;BME280;69765;47.668;19.326;2023-05-10T06:00:14;99349.13;;;16.13;57.66
80424;BME280;69765;47.668;19.326;2023-05-10T06:03:16;99356.56;;;16.43;57.06
80424;BME280;69765;47.668;19.326;2023-05-10T06:06:19;99351.28;;;16.98;54.03
80424;BME280;69765;47.668;19.326;2023-05-10T06:09:21;99347.22;;;19.00;48.14
80424;BME280;69765;47.668;19.326;2023-05-10T06:12:25;99354.84;;;19.71;45.97
80424;BME280;69765;47.668;19.326;2023-05-10T06:15:28;99352.34;;;19.48;46.32
80424;BME280;69765;47.668;19.326;2023-05-10T06:18:30;99350.84;;;20.96;43.86
80424;BME280;69765;47.668;19.326;2023-05-10T06:21:33;99353.63;;;20.42;43.70
80424;BME280;69765;47.668;19.326;2023-05-10T06:24:35;99345.84;;;20.15;42.26
80424;BME280;69765;47.668;19.326;2023-05-10T06:27:37;99341.88;;;19.99;41.76
80424;BME280;69765;47.668;19.326;2023-05-10T06:30:40;99357.97;;;19.86;45.19
80424;BME280;69765;47.668;19.326;2023-05-10T06:33:42;99355.41;;;19.87;42.77
80424;BME280;69765;47.668;19.326;2023-05-10T06:36:45;99358.03;;;18.20;47.38
80424;BME280;69765;47.668;19.326;2023-05-10T06:39:47;99361.63;;;17.59;48.21
80424;BME280;69765;47.668;19.326;2023-05-10T06:42:50;99362.03;;;16.88;50.22
80424;BME280;69765;47.668;19.326;2023-05-10T06:45:53;99362.94;;;16.51;50.38
80424;BME280;69765;47.668;19.326;2023-05-10T06:48:55;99361.44;;;16.56;49.68
80424;BME280;69765;47.668;19.326;2023-05-10T06:51:57;99354.84;;;17.00;48.10
80424;BME280;69765;47.668;19.326;2023-05-10T06:55:00;99361.06;;;17.24;48.75
80424;BME280;69765;47.668;19.326;2023-05-10T06:58:02;99363.41;;;16.99;48.71
80424;BME280;69765;47.668;19.326;2023-05-10T07:01:05;99362.06;;;17.49;48.25
80424;BME280;69765;47.668;19.326;2023-05-10T07:04:08;99366.13;;;17.63;46.94
80424;BME280;69765;47.668;19.326;2023-05-10T07:07:10;99366.16;;;18.06;46.85
80424;BME280;69765;47.668;19.326;2023-05-10T07:10:13;99364.19;;;17.78;45.86
80424;BME280;69765;47.668;19.326;2023-05-10T07:13:15;99362.34;;;18.64;46.44
80424;BME280;69765;47.668;19.326;2023-05-10T07:16:18;99366.69;;;19.11;44.27
80424;BME280;69765;47.668;19.326;2023-05-10T07:19:21;99368.84;;;20.01;42.34
80424;BME280;69765;47.668;19.326;2023-05-10T07:22:33;99366.38;;;20.61;41.33
80424;BME280;69765;47.668;19.326;2023-05-10T07:25:35;99364.31;;;18.94;43.79
80424;BME280;69765;47.668;19.326;2023-05-10T07:28:38;99364.09;;;18.87;45.32
80424;BME280;69765;47.668;19.326;2023-05-10T07:31:41;99369.38;;;19.64;43.21
80424;BME280;69765;47.668;19.326;2023-05-10T07:34:44;99358.22;;;18.93;46.07
80424;BME280;69765;47.668;19.326;2023-05-10T07:37:47;99365.69;;;18.84;45.68
80424;BME280;69765;47.668;19.326;2023-05-10T07:40:49;99367.44;;;18.16;46.19
80424;BME280;69765;47.668;19.326;2023-05-10T07:43:51;99358.00;;;18.18;47.76
80424;BME280;69765;47.668;19.326;2023-05-10T07:46:54;99357.47;;;19.47;44.59
80424;BME280;69765;47.668;19.326;2023-05-10T07:49:57;99374.22;;;19.80;44.17
80424;BME280;69765;47.668;19.326;2023-05-10T07:52:59;99358.06;;;19.62;42.79
80424;BME280;69765;47.668;19.326;2023-05-10T07:56:28;99361.66;;;20.21;41.96
80424;BME280;69765;47.668;19.326;2023-05-10T07:59:34;99351.13;;;19.62;43.06
80424;BME280;69765;47.668;19.326;2023-05-10T08:02:36;99349.97;;;17.90;47.00
80424;BME280;69765;47.668;19.326;2023-05-10T08:05:39;99349.94;;;19.29;45.28
80424;BME280;69765;47.668;19.326;2023-05-10T08:08:42;99353.91;;;18.70;44.99
80424;BME280;69765;47.668;19.326;2023-05-10T08:11:44;99361.13;;;17.68;47.85
80424;BME280;69765;47.668;19.326;2023-05-10T08:14:47;99355.66;;;17.81;47.45
80424;BME280;69765;47.668;19.326;2023-05-10T08:17:49;99347.44;;;20.10;43.70
80424;BME280;69765;47.668;19.326;2023-05-10T08:20:52;99355.69;;;21.46;40.20
80424;BME280;69765;47.668;19.326;2023-05-10T08:23:54;99353.88;;;22.14;39.55
80424;BME280;69765;47.668;19.326;2023-05-10T08:27:00;99352.69;;;23.25;36.23
80424;BME280;69765;47.668;19.326;2023-05-10T08:30:03;99348.78;;;23.50;35.57
80424;BME280;69765;47.668;19.326;2023-05-10T08:33:05;99342.31;;;22.43;38.00
80424;BME280;69765;47.668;19.326;2023-05-10T08:36:08;99348.50;;;21.05;39.67
80424;BME280;69765;47.668;19.326;2023-05-10T08:39:10;99355.41;;;19.87;43.29
80424;BME280;69765;47.668;19.326;2023-05-10T08:42:30;99350.00;;;20.97;41.51
80424;BME280;69765;47.668;19.326;2023-05-10T08:45:39;99346.41;;;20.93;40.71
80424;BME280;69765;47.668;19.326;2023-05-10T08:48:43;99344.69;;;20.62;41.59
80424;BME280;69765;47.668;19.326;2023-05-10T08:51:52;99349.47;;;20.47;40.77
80424;BME280;69765;47.668;19.326;2023-05-10T08:54:57;99355.09;;;19.78;43.67
80424;BME280;69765;47.668;19.326;2023-05-10T08:58:00;99350.97;;;19.08;45.92
80424;BME280;69765;47.668;19.326;2023-05-10T09:01:03;99352.47;;;19.77;43.37
80424;BME280;69765;47.668;19.326;2023-05-10T09:04:05;99343.03;;;19.04;44.14
80424;BME280;69765;47.668;19.326;2023-05-10T09:07:08;99348.66;;;19.94;44.62
80424;BME280;69765;47.668;19.326;2023-05-10T09:10:11;99337.38;;;20.49;42.01
80424;BME280;69765;47.668;19.326;2023-05-10T09:13:15;99339.78;;;22.45;38.93
80424;BME280;69765;47.668;19.326;2023-05-10T09:16:20;99349.94;;;19.54;42.57
80424;BME280;69765;47.668;19.326;2023-05-10T09:19:23;99347.19;;;19.50;41.57
80424;BME280;69765;47.668;19.326;2023-05-10T09:22:26;99351.00;;;18.62;44.43
80424;BME280;69765;47.668;19.326;2023-05-10T09:25:29;99355.69;;;18.71;44.61
80424;BME280;69765;47.668;19.326;2023-05-10T09:28:49;99366.22;;;18.53;47.22
80424;BME280;69765;47.668;19.326;2023-05-10T09:31:52;99364.50;;;18.07;46.53
80424;BME280;69765;47.668;19.326;2023-05-10T09:34:56;99362.47;;;18.45;45.82
80424;BME280;69765;47.668;19.326;2023-05-10T09:38:02;99355.88;;;19.50;44.56
80424;BME280;69765;47.668;19.326;2023-05-10T09:41:16;99341.97;;;22.27;38.73
80424;BME280;69765;47.668;19.326;2023-05-10T09:44:19;99348.47;;;21.04;39.31
80424;BME280;69765;47.668;19.326;2023-05-10T09:47:21;99354.16;;;20.03;41.43
80424;BME280;69765;47.668;19.326;2023-05-10T09:50:25;99351.66;;;19.28;41.82
80424;BME280;69765;47.668;19.326;2023-05-10T09:53:27;99339.91;;;20.19;41.56
80424;BME280;69765;47.668;19.326;2023-05-10T09:56:33;99338.13;;;19.89;42.58
80424;BME280;69765;47.668;19.326;2023-05-10T09:59:42;99338.22;;;19.65;41.92
80424;BME280;69765;47.668;19.326;2023-05-10T10:02:54;99328.28;;;21.30;39.10
80424;BME280;69765;47.668;19.326;2023-05-10T10:05:57;99328.97;;;22.70;35.70
80424;BME280;69765;47.668;19.326;2023-05-10T10:09:00;99322.25;;;23.79;32.93
80424;BME280;69765;47.668;19.326;2023-05-10T10:12:02;99327.22;;;23.13;35.75
80424;BME280;69765;47.668;19.326;2023-05-10T10:15:07;99313.38;;;22.74;34.92
80424;BME280;69765;47.668;19.326;2023-05-10T10:18:13;99313.78;;;22.51;35.63
80424;BME280;69765;47.668;19.326;2023-05-10T10:21:17;99317.03;;;21.31;38.27
80424;BME280;69765;47.668;19.326;2023-05-10T10:24:19;99306.59;;;23.30;34.88
80424;BME280;69765;47.668;19.326;2023-05-10T10:27:26;99305.56;;;21.59;37.43
80424;BME280;69765;47.668;19.326;2023-05-10T10:30:46;99306.16;;;20.51;38.94
80424;BME280;69765;47.668;19.326;2023-05-10T10:37:04;99301.59;;;20.43;40.20
80424;BME280;69765;47.668;19.326;2023-05-10T10:40:42;99302.69;;;19.66;40.16
80424;BME280;69765;47.668;19.326;2023-05-10T10:43:45;99302.69;;;19.66;40.53
80424;BME280;69765;47.668;19.326;2023-05-10T10:47:00;99300.88;;;19.62;40.77
80424;BME280;69765;47.668;19.326;2023-05-10T10:50:06;99290.44;;;19.89;40.38
80424;BME280;69765;47.668;19.326;2023-05-10T10:53:10;99291.94;;;19.03;43.56
80424;BME280;69765;47.668;19.326;2023-05-10T10:56:13;99288.25;;;18.72;42.87
80424;BME280;69765;47.668;19.326;2023-05-10T10:59:26;99285.53;;;18.45;44.10
80424;BME280;69765;47.668;19.326;2023-05-10T11:02:43;99284.66;;;18.45;44.38
80424;BME280;69765;47.668;19.326;2023-05-10T11:05:48;99287.81;;;19.35;42.60
80424;BME280;69765;47.668;19.326;2023-05-10T11:08:51;99273.63;;;19.78;40.35
80424;BME280;69765;47.668;19.326;2023-05-10T11:11:54;99271.88;;;20.05;40.70
80424;BME280;69765;47.668;19.326;2023-05-10T11:14:57;99270.31;;;21.04;38.52
80424;BME280;69765;47.668;19.326;2023-05-10T11:18:34;99275.75;;;21.13;38.47
80424;BME280;69765;47.668;19.326;2023-05-10T11:22:11;99270.09;;;20.33;39.75
80424;BME280;69765;47.668;19.326;2023-05-10T11:25:15;99274.25;;;19.71;42.40
80424;BME280;69765;47.668;19.326;2023-05-10T11:28:17;99273.78;;;19.57;40.50
80424;BME280;69765;47.668;19.326;2023-05-10T11:31:22;99264.34;;;19.59;40.72
80424;BME280;69765;47.668;19.326;2023-05-10T11:34:32;99263.09;;;19.73;41.22
80424;BME280;69765;47.668;19.326;2023-05-10T11:37:39;99263.88;;;19.18;41.74
80424;BME280;69765;47.668;19.326;2023-05-10T11:40:43;99255.25;;;19.72;42.65
80424;BME280;69765;47.668;19.326;2023-05-10T11:43:46;99244.34;;;19.83;39.35
80424;BME280;69765;47.668;19.326;2023-05-10T11:46:49;99247.59;;;20.05;41.77
80424;BME280;69765;47.668;19.326;2023-05-10T11:49:52;99247.53;;;20.33;39.02
80424;BME280;69765;47.668;19.326;2023-05-10T11:52:56;99243.47;;;20.13;39.31
80424;BME280;69765;47.668;19.326;2023-05-10T11:56:09;99240.97;;;20.16;38.81
80424;BME280;69765;47.668;19.326;2023-05-10T11:59:14;99246.28;;;20.49;38.98
80424;BME280;69765;47.668;19.326;2023-05-10T12:02:17;99245.41;;;20.49;41.12
80424;BME280;69765;47.668;19.326;2023-05-10T12:05:19;99253.38;;;20.25;40.75
80424;BME280;69765;47.668;19.326;2023-05-10T12:08:24;99245.88;;;20.05;40.71
80424;BME280;69765;47.668;19.326;2023-05-10T12:11:28;99257.72;;;20.26;39.15
80424;BME280;69765;47.668;19.326;2023-05-10T12:14:34;99258.44;;;19.63;40.99
80424;BME280;69765;47.668;19.326;2023-05-10T12:17:38;99250.72;;;19.66;41.54
80424;BME280;69765;47.668;19.326;2023-05-10T12:20:44;99234.44;;;19.45;39.96
80424;BME280;69765;47.668;19.326;2023-05-10T12:23:48;99240.91;;;19.57;42.38
80424;BME280;69765;47.668;19.326;2023-05-10T12:26:50;99249.16;;;19.44;42.28
80424;BME280;69765;47.668;19.326;2023-05-10T12:29:52;99244.44;;;19.59;40.60
80424;BME280;69765;47.668;19.326;2023-05-10T12:33:10;99244.00;;;19.46;43.37
80424;BME280;69765;47.668;19.326;2023-05-10T12:36:14;99234.97;;;19.07;42.25
80424;BME280;69765;47.668;19.326;2023-05-10T12:39:17;99231.69;;;18.87;40.81
80424;BME280;69765;47.668;19.326;2023-05-10T12:42:20;99240.81;;;19.27;42.63
80424;BME280;69765;47.668;19.326;2023-05-10T12:45:22;99232.53;;;19.39;41.42
80424;BME280;69765;47.668;19.326;2023-05-10T12:48:25;99227.81;;;19.54;41.00
80424;BME280;69765;47.668;19.326;2023-05-10T12:51:27;99216.56;;;19.82;41.71
80424;BME280;69765;47.668;19.326;2023-05-10T12:54:30;99210.78;;;19.91;40.06
80424;BME280;69765;47.668;19.326;2023-05-10T12:57:32;99204.44;;;20.13;38.96
80424;BME280;69765;47.668;19.326;2023-05-10T13:00:35;99209.38;;;20.04;39.79
80424;BME280;69765;47.668;19.326;2023-05-10T13:03:39;99206.56;;;20.26;39.64
80424;BME280;69765;47.668;19.326;2023-05-10T13:06:42;99205.94;;;19.75;39.75
80424;BME280;69765;47.668;19.326;2023-05-10T13:09:44;99198.09;;;20.03;40.85
80424;BME280;69765;47.668;19.326;2023-05-10T13:12:46;99190.28;;;20.02;41.31
80424;BME280;69765;47.668;19.326;2023-05-10T13:15:49;99187.81;;;20.06;42.10
80424;BME280;69765;47.668;19.326;2023-05-10T13:18:51;99182.94;;;20.83;39.96
80424;BME280;69765;47.668;19.326;2023-05-10T13:21:54;99188.28;;;20.55;38.76
80424;BME280;69765;47.668;19.326;2023-05-10T13:24:56;99177.47;;;20.41;40.75
80424;BME280;69765;47.668;19.326;2023-05-10T13:27:58;99171.72;;;20.51;40.54
80424;BME280;69765;47.668;19.326;2023-05-10T13:31:01;99168.88;;;20.12;41.57
80424;BME280;69765;47.668;19.326;2023-05-10T13:34:04;99172.47;;;20.15;38.87
80424;BME280;69765;47.668;19.326;2023-05-10T13:37:07;99161.06;;;20.12;39.66
80424;BME280;69765;47.668;19.326;2023-05-10T13:40:10;99162.31;;;20.25;37.58
80424;BME280;69765;47.668;19.326;2023-05-10T13:43:12;99155.53;;;20.31;38.47
80424;BME280;69765;47.668;19.326;2023-05-10T13:46:14;99150.25;;;19.97;38.36
80424;BME280;69765;47.668;19.326;2023-05-10T13:49:17;99153.78;;;19.69;38.86
80424;BME280;69765;47.668;19.326;2023-05-10T13:52:19;99149.00;;;19.84;38.40
80424;BME280;69765;47.668;19.326;2023-05-10T13:55:22;99153.13;;;20.06;38.57
80424;BME280;69765;47.668;19.326;2023-05-10T13:58:24;99148.63;;;20.00;37.67
80424;BME280;69765;47.668;19.326;2023-05-10T14:01:26;99146.72;;;19.95;37.81
80424;BME280;69765;47.668;19.326;2023-05-10T14:04:29;99148.06;;;20.12;36.96
80424;BME280;69765;47.668;19.326;2023-05-10T14:07:32;99133.56;;;20.20;36.32
80424;BME280;69765;47.668;19.326;2023-05-10T14:10:34;99137.69;;;19.82;37.27
80424;BME280;69765;47.668;19.326;2023-05-10T14:13:37;99137.66;;;20.12;38.38
80424;BME280;69765;47.668;19.326;2023-05-10T14:16:43;99131.69;;;20.14;39.60
80424;BME280;69765;47.668;19.326;2023-05-10T14:19:46;99130.75;;;20.46;38.24
80424;BME280;69765;47.668;19.326;2023-05-10T14:22:48;99143.00;;;20.16;39.25
80424;BME280;69765;47.668;19.326;2023-05-10T14:25:52;99138.97;;;19.96;39.67
80424;BME280;69765;47.668;19.326;2023-05-10T14:28:54;99145.31;;;19.76;39.38
80424;BME280;69765;47.668;19.326;2023-05-10T14:31:56;99133.16;;;19.75;39.62
80424;BME280;69765;47.668;19.326;2023-05-10T14:34:59;99131.63;;;19.81;40.97
80424;BME280;69765;47.668;19.326;2023-05-10T14:38:02;99137.38;;;20.01;40.42
80424;BME280;69765;47.668;19.326;2023-05-10T14:41:05;99130.81;;;19.84;42.89
80424;BME280;69765;47.668;19.326;2023-05-10T14:44:10;99144.47;;;19.20;43.84
80424;BME280;69765;47.668;19.326;2023-05-10T14:47:12;99138.34;;;18.90;41.93
80424;BME280;69765;47.668;19.326;2023-05-10T14:50:14;99131.28;;;19.13;42.28
80424;BME280;69765;47.668;19.326;2023-05-10T14:53:36;99141.19;;;18.98;41.90
80424;BME280;69765;47.668;19.326;2023-05-10T14:56:38;99133.44;;;18.73;40.71
80424;BME280;69765;47.668;19.326;2023-05-10T14:59:40;99140.63;;;18.81;41.23
80424;BME280;69765;47.668;19.326;2023-05-10T15:02:43;99144.84;;;18.78;40.99
80424;BME280;69765;47.668;19.326;2023-05-10T15:05:46;99148.28;;;19.31;41.89
80424;BME280;69765;47.668;19.326;2023-05-10T15:08:48;99139.41;;;19.24;39.50
80424;BME280;69765;47.668;19.326;2023-05-10T15:11:50;99134.09;;;19.20;41.09
80424;BME280;69765;47.668;19.326;2023-05-10T15:14:53;99146.22;;;19.21;41.02
80424;BME280;69765;47.668;19.326;2023-05-10T15:17:55;99133.13;;;18.90;41.50
80424;BME280;69765;47.668;19.326;2023-05-10T15:20:58;99131.09;;;18.80;41.18
80424;BME280;69765;47.668;19.326;2023-05-10T15:24:00;99134.84;;;18.90;42.02
80424;BME280;69765;47.668;19.326;2023-05-10T15:27:03;99136.63;;;18.65;42.58
80424;BME280;69765;47.668;19.326;2023-05-10T15:30:05;99134.47;;;18.78;42.64
80424;BME280;69765;47.668;19.326;2023-05-10T15:33:08;99129.75;;;18.68;43.78
80424;BME280;69765;47.668;19.326;2023-05-10T15:36:11;99129.47;;;18.84;42.62
80424;BME280;69765;47.668;19.326;2023-05-10T15:39:13;99133.34;;;18.70;43.53
80424;BME280;69765;47.668;19.326;2023-05-10T15:42:15;99127.34;;;18.47;43.27
80424;BME280;69765;47.668;19.326;2023-05-10T15:45:18;99125.09;;;18.57;45.35
80424;BME280;69765;47.668;19.326;2023-05-10T15:48:21;99120.38;;;18.20;46.42
80424;BME280;69765;47.668;19.326;2023-05-10T15:51:23;99125.16;;;18.33;45.47
80424;BME280;69765;47.668;19.326;2023-05-10T15:54:25;99116.06;;;18.21;45.77
80424;BME280;69765;47.668;19.326;2023-05-10T15:57:28;99111.03;;;18.25;47.81
80424;BME280;69765;47.668;19.326;2023-05-10T16:00:30;99107.53;;;17.99;46.55
80424;BME280;69765;47.668;19.326;2023-05-10T16:03:33;99107.72;;;17.80;47.53
80424;BME280;69765;47.668;19.326;2023-05-10T16:06:38;99111.91;;;17.76;47.02
80424;BME280;69765;47.668;19.326;2023-05-10T16:09:40;99108.94;;;17.67;46.77
80424;BME280;69765;47.668;19.326;2023-05-10T16:12:43;99108.00;;;17.65;46.37
80424;BME280;69765;47.668;19.326;2023-05-10T16:15:45;99111.50;;;17.43;49.00
80424;BME280;69765;47.668;19.326;2023-05-10T16:18:48;99115.97;;;17.47;47.61
80424;BME280;69765;47.668;19.326;2023-05-10T16:21:50;99110.28;;;17.33;46.06
80424;BME280;69765;47.668;19.326;2023-05-10T16:24:52;99117.50;;;17.20;47.29
80424;BME280;69765;47.668;19.326;2023-05-10T16:27:55;99112.31;;;17.20;47.09